sensor_id;sensor_type;location;lat;lon;timestamp;pressure;altitude;pressure_sealevel;temperature;humidity
42415;BME280;28058;46.344;17.786;2022-09-09T00:03:48;118336.50;;;-144.97;100.00
42415;BME280;28058;46.344;17.786;2022-09-09T00:06:30;118336.50;;;-144.97;100.00
42415;BME280;28058;46.344;17.786;2022-09-09T00:09:00;118336.50;;;-144.97;100.00
42415;BME280;28058;46.344;17.786;2022-09-09T00:11:51;118336.50;;;-144.97;100.00
42415;BME280;28058;46.344;17.786;2022-09-09T00:14:26;118336.50;;;-144.97;100.00
42415;BME280;28058;46.344;17.786;2022-09-09T00:17:02;118336.50;;;-144.97;100.00
42415;BME280;28058;46.344;17.786;2022-09-09T00:22:20;118336.50;;;-144.97;100.00
42415;BME280;28058;46.344;17.786;2022-09-09T00:24:52;118336.50;;;-144.97;100.00
42415;BME280;28058;46.344;17.786;2022-09-09T00:27:32;118336.50;;;-144.97;100.00
42415;BME280;28058;46.344;17.786;2022-09-09T00:32:37;118336.50;;;-144.97;100.00
42415;BME280;28058;46.344;17.786;2022-09-09T00:35:18;118336.50;;;-144.97;100.00
42415;BME280;28058;46.344;17.786;2022-09-09T00:37:47;118336.50;;;-144.97;100.00
42415;BME280;28058;46.344;17.786;2022-09-09T00:40:24;118336.50;;;-144.97;100.00
42415;BME280;28058;46.344;17.786;2022-09-09T00:43:06;118336.50;;;-144.97;100.00
42415;BME280;28058;46.344;17.786;2022-09-09T00:48:32;118336.50;;;-144.97;100.00
42415;BME280;28058;46.344;17.786;2022-09-09T00:51:15;118336.50;;;-144.97;100.00
42415;BME280;28058;46.344;17.786;2022-09-09T00:56:37;118336.50;;;-144.97;100.00
42415;BME280;28058;46.344;17.786;2022-09-09T00:59:29;118336.50;;;-144.97;100.00
42415;BME280;28058;46.344;17.786;2022-09-09T01:02:28;118336.50;;;-144.97;100.00
42415;BME280;28058;46.344;17.786;2022-09-09T01:05:05;118336.50;;;-144.97;100.00
42415;BME280;28058;46.344;17.786;2022-09-09T01:07:33;118336.50;;;-144.97;100.00
42415;BME280;28058;46.344;17.786;2022-09-09T01:10:07;118336.50;;;-144.97;100.00
42415;BME280;28058;46.344;17.786;2022-09-09T01:12:42;118336.50;;;-144.97;100.00
42415;BME280;28058;46.344;17.786;2022-09-09T01:15:14;118336.50;;;-144.97;100.00
42415;BME280;28058;46.344;17.786;2022-09-09T01:23:22;118336.50;;;-144.97;100.00
42415;BME280;28058;46.344;17.786;2022-09-09T01:28:47;118336.50;;;-144.97;100.00
42415;BME280;28058;46.344;17.786;2022-09-09T01:31:39;118336.50;;;-144.97;100.00
42415;BME280;28058;46.344;17.786;2022-09-09T01:34:14;118336.50;;;-144.97;100.00
42415;BME280;28058;46.344;17.786;2022-09-09T01:36:49;118336.50;;;-144.97;100.00
42415;BME280;28058;46.344;17.786;2022-09-09T01:39:19;118336.50;;;-144.97;100.00
42415;BME280;28058;46.344;17.786;2022-09-09T01:41:46;118336.50;;;-144.97;100.00
42415;BME280;28058;46.344;17.786;2022-09-09T01:44:13;118336.50;;;-144.97;100.00
42415;BME280;28058;46.344;17.786;2022-09-09T01:46:40;118336.50;;;-144.97;100.00
42415;BME280;28058;46.344;17.786;2022-09-09T01:49:08;118336.50;;;-144.97;100.00
42415;BME280;28058;46.344;17.786;2022-09-09T01:51:37;118336.50;;;-144.97;100.00
42415;BME280;28058;46.344;17.786;2022-09-09T01:54:06;118336.50;;;-144.97;100.00
42415;BME280;28058;46.344;17.786;2022-09-09T02:04:41;118336.50;;;-144.97;100.00
42415;BME280;28058;46.344;17.786;2022-09-09T02:07:38;118336.50;;;-144.97;100.00
42415;BME280;28058;46.344;17.786;2022-09-09T02:10:20;118336.50;;;-144.97;100.00
42415;BME280;28058;46.344;17.786;2022-09-09T02:12:52;118336.50;;;-144.97;100.00
42415;BME280;28058;46.344;17.786;2022-09-09T02:18:25;118336.50;;;-144.97;100.00
42415;BME280;28058;46.344;17.786;2022-09-09T02:20:54;118336.50;;;-144.97;100.00
42415;BME280;28058;46.344;17.786;2022-09-09T02:23:22;118336.50;;;-144.97;100.00
42415;BME280;28058;46.344;17.786;2022-09-09T02:25:50;118336.50;;;-144.97;100.00
42415;BME280;28058;46.344;17.786;2022-09-09T02:28:21;118336.50;;;-144.97;100.00
42415;BME280;28058;46.344;17.786;2022-09-09T02:30:51;118336.50;;;-144.97;100.00
42415;BME280;28058;46.344;17.786;2022-09-09T02:33:27;118336.50;;;-144.97;100.00
42415;BME280;28058;46.344;17.786;2022-09-09T02:35:56;118336.50;;;-144.97;100.00
42415;BME280;28058;46.344;17.786;2022-09-09T02:38:30;118336.50;;;-144.97;100.00
42415;BME280;28058;46.344;17.786;2022-09-09T02:40:58;118336.50;;;-144.97;100.00
42415;BME280;28058;46.344;17.786;2022-09-09T02:43:25;118336.50;;;-144.97;100.00
42415;BME280;28058;46.344;17.786;2022-09-09T02:51:32;118336.50;;;-144.97;100.00
42415;BME280;28058;46.344;17.786;2022-09-09T02:54:28;118336.50;;;-144.97;100.00
42415;BME280;28058;46.344;17.786;2022-09-09T02:57:18;118336.50;;;-144.97;100.00
42415;BME280;28058;46.344;17.786;2022-09-09T02:59:46;118336.50;;;-144.97;100.00
42415;BME280;28058;46.344;17.786;2022-09-09T03:02:13;118336.50;;;-144.97;100.00
42415;BME280;28058;46.344;17.786;2022-09-09T03:04:40;118336.50;;;-144.97;100.00
42415;BME280;28058;46.344;17.786;2022-09-09T03:07:11;118336.50;;;-144.97;100.00
42415;BME280;28058;46.344;17.786;2022-09-09T03:09:38;118336.50;;;-144.97;100.00
42415;BME280;28058;46.344;17.786;2022-09-09T03:12:05;118336.50;;;-144.97;100.00
42415;BME280;28058;46.344;17.786;2022-09-09T03:14:32;118336.50;;;-144.97;100.00
42415;BME280;28058;46.344;17.786;2022-09-09T03:16:59;118336.50;;;-144.97;100.00
42415;BME280;28058;46.344;17.786;2022-09-09T03:19:27;118336.50;;;-144.97;100.00
42415;BME280;28058;46.344;17.786;2022-09-09T03:21:54;118336.50;;;-144.97;100.00
42415;BME280;28058;46.344;17.786;2022-09-09T03:24:21;118336.50;;;-144.97;100.00
42415;BME280;28058;46.344;17.786;2022-09-09T03:26:49;118336.50;;;-144.97;100.00
42415;BME280;28058;46.344;17.786;2022-09-09T03:29:17;118336.50;;;-144.97;100.00
42415;BME280;28058;46.344;17.786;2022-09-09T03:31:45;118336.50;;;-144.97;100.00
42415;BME280;28058;46.344;17.786;2022-09-09T03:34:11;118336.50;;;-144.97;100.00
42415;BME280;28058;46.344;17.786;2022-09-09T03:36:40;118336.50;;;-144.97;100.00
42415;BME280;28058;46.344;17.786;2022-09-09T03:39:07;118336.50;;;-144.97;100.00
42415;BME280;28058;46.344;17.786;2022-09-09T03:41:34;118336.50;;;-144.97;100.00
42415;BME280;28058;46.344;17.786;2022-09-09T03:44:01;118336.50;;;-144.97;100.00
42415;BME280;28058;46.344;17.786;2022-09-09T03:46:28;118336.50;;;-144.97;100.00
42415;BME280;28058;46.344;17.786;2022-09-09T03:48:55;118336.50;;;-144.97;100.00
42415;BME280;28058;46.344;17.786;2022-09-09T03:51:21;118336.50;;;-144.97;100.00
42415;BME280;28058;46.344;17.786;2022-09-09T03:53:48;118336.50;;;-144.97;100.00
42415;BME280;28058;46.344;17.786;2022-09-09T03:56:15;118336.50;;;-144.97;100.00
42415;BME280;28058;46.344;17.786;2022-09-09T03:58:42;118336.50;;;-144.97;100.00
42415;BME280;28058;46.344;17.786;2022-09-09T04:01:13;118336.50;;;-144.97;100.00
42415;BME280;28058;46.344;17.786;2022-09-09T04:03:40;118336.50;;;-144.97;100.00
42415;BME280;28058;46.344;17.786;2022-09-09T04:06:09;118336.50;;;-144.97;100.00
42415;BME280;28058;46.344;17.786;2022-09-09T04:08:37;118336.50;;;-144.97;100.00
42415;BME280;28058;46.344;17.786;2022-09-09T04:11:05;118336.50;;;-144.97;100.00
42415;BME280;28058;46.344;17.786;2022-09-09T04:13:37;118336.50;;;-144.97;100.00
42415;BME280;28058;46.344;17.786;2022-09-09T04:16:06;118336.50;;;-144.97;100.00
42415;BME280;28058;46.344;17.786;2022-09-09T04:18:33;118336.50;;;-144.97;100.00
42415;BME280;28058;46.344;17.786;2022-09-09T04:21:01;118336.50;;;-144.97;100.00
42415;BME280;28058;46.344;17.786;2022-09-09T04:23:30;118336.50;;;-144.97;100.00
42415;BME280;28058;46.344;17.786;2022-09-09T04:25:58;118336.50;;;-144.97;100.00
42415;BME280;28058;46.344;17.786;2022-09-09T04:28:28;118336.50;;;-144.97;100.00
42415;BME280;28058;46.344;17.786;2022-09-09T04:30:55;118336.50;;;-144.97;100.00
42415;BME280;28058;46.344;17.786;2022-09-09T04:33:24;118336.50;;;-144.97;100.00
42415;BME280;28058;46.344;17.786;2022-09-09T04:35:54;118336.50;;;-144.97;100.00
42415;BME280;28058;46.344;17.786;2022-09-09T04:38:21;118336.50;;;-144.97;100.00
42415;BME280;28058;46.344;17.786;2022-09-09T04:40:50;118336.50;;;-144.97;100.00
42415;BME280;28058;46.344;17.786;2022-09-09T04:43:18;118336.50;;;-144.97;100.00
42415;BME280;28058;46.344;17.786;2022-09-09T04:45:50;118336.50;;;-144.97;100.00
42415;BME280;28058;46.344;17.786;2022-09-09T04:48:18;118336.50;;;-144.97;100.00
42415;BME280;28058;46.344;17.786;2022-09-09T04:50:57;118336.50;;;-144.97;100.00
42415;BME280;28058;46.344;17.786;2022-09-09T04:53:24;118336.50;;;-144.97;100.00
42415;BME280;28058;46.344;17.786;2022-09-09T04:56:00;118336.50;;;-144.97;100.00
42415;BME280;28058;46.344;17.786;2022-09-09T04:58:27;118336.50;;;-144.97;100.00
42415;BME280;28058;46.344;17.786;2022-09-09T05:00:54;118336.50;;;-144.97;100.00
42415;BME280;28058;46.344;17.786;2022-09-09T05:03:21;118336.50;;;-144.97;100.00
42415;BME280;28058;46.344;17.786;2022-09-09T05:05:48;118336.50;;;-144.97;100.00
42415;BME280;28058;46.344;17.786;2022-09-09T05:08:15;118336.50;;;-144.97;100.00
42415;BME280;28058;46.344;17.786;2022-09-09T05:10:42;118336.50;;;-144.97;100.00
42415;BME280;28058;46.344;17.786;2022-09-09T05:13:08;118336.50;;;-144.97;100.00
42415;BME280;28058;46.344;17.786;2022-09-09T05:15:35;118336.50;;;-144.97;100.00
42415;BME280;28058;46.344;17.786;2022-09-09T05:18:02;118336.50;;;-144.97;100.00
42415;BME280;28058;46.344;17.786;2022-09-09T05:20:29;118336.50;;;-144.97;100.00
42415;BME280;28058;46.344;17.786;2022-09-09T05:22:56;118336.50;;;-144.97;100.00
42415;BME280;28058;46.344;17.786;2022-09-09T05:25:24;118336.50;;;-144.97;100.00
42415;BME280;28058;46.344;17.786;2022-09-09T05:27:53;118336.50;;;-144.97;100.00
42415;BME280;28058;46.344;17.786;2022-09-09T05:30:21;118336.50;;;-144.97;100.00
42415;BME280;28058;46.344;17.786;2022-09-09T05:32:49;118336.50;;;-144.97;100.00
42415;BME280;28058;46.344;17.786;2022-09-09T05:35:16;118336.50;;;-144.97;100.00
42415;BME280;28058;46.344;17.786;2022-09-09T05:37:45;118336.50;;;-144.97;100.00
42415;BME280;28058;46.344;17.786;2022-09-09T05:40:12;118336.50;;;-144.97;100.00
42415;BME280;28058;46.344;17.786;2022-09-09T05:42:40;118336.50;;;-144.97;100.00
42415;BME280;28058;46.344;17.786;2022-09-09T05:45:08;118336.50;;;-144.97;100.00
42415;BME280;28058;46.344;17.786;2022-09-09T05:47:36;118336.50;;;-144.97;100.00
42415;BME280;28058;46.344;17.786;2022-09-09T05:50:04;118336.50;;;-144.97;100.00
42415;BME280;28058;46.344;17.786;2022-09-09T05:52:31;118336.50;;;-144.97;100.00
42415;BME280;28058;46.344;17.786;2022-09-09T05:54:58;118336.50;;;-144.97;100.00
42415;BME280;28058;46.344;17.786;2022-09-09T05:57:26;118336.50;;;-144.97;100.00
42415;BME280;28058;46.344;17.786;2022-09-09T05:59:53;118336.50;;;-144.97;100.00
42415;BME280;28058;46.344;17.786;2022-09-09T06:02:20;118336.50;;;-144.97;100.00
42415;BME280;28058;46.344;17.786;2022-09-09T06:04:47;118336.50;;;-144.97;100.00
42415;BME280;28058;46.344;17.786;2022-09-09T06:07:14;118336.50;;;-144.97;100.00
42415;BME280;28058;46.344;17.786;2022-09-09T06:09:41;118336.50;;;-144.97;100.00
42415;BME280;28058;46.344;17.786;2022-09-09T06:12:08;118336.50;;;-144.97;100.00
42415;BME280;28058;46.344;17.786;2022-09-09T06:14:35;118336.50;;;-144.97;100.00
42415;BME280;28058;46.344;17.786;2022-09-09T06:17:03;118336.50;;;-144.97;100.00
42415;BME280;28058;46.344;17.786;2022-09-09T06:19:30;118336.50;;;-144.97;100.00
42415;BME280;28058;46.344;17.786;2022-09-09T06:21:57;118336.50;;;-144.97;100.00
42415;BME280;28058;46.344;17.786;2022-09-09T06:24:24;118336.50;;;-144.97;100.00
42415;BME280;28058;46.344;17.786;2022-09-09T06:26:51;118336.50;;;-144.97;100.00
42415;BME280;28058;46.344;17.786;2022-09-09T06:29:18;118336.50;;;-144.97;100.00
42415;BME280;28058;46.344;17.786;2022-09-09T06:31:45;118336.50;;;-144.97;100.00
42415;BME280;28058;46.344;17.786;2022-09-09T06:34:12;118336.50;;;-144.97;100.00
42415;BME280;28058;46.344;17.786;2022-09-09T06:36:39;118336.50;;;-144.97;100.00
42415;BME280;28058;46.344;17.786;2022-09-09T06:39:06;118336.50;;;-144.97;100.00
42415;BME280;28058;46.344;17.786;2022-09-09T06:41:40;118336.50;;;-144.97;100.00
42415;BME280;28058;46.344;17.786;2022-09-09T06:44:07;118336.50;;;-144.97;100.00
42415;BME280;28058;46.344;17.786;2022-09-09T06:46:34;118336.50;;;-144.97;100.00
42415;BME280;28058;46.344;17.786;2022-09-09T06:49:02;118336.50;;;-144.97;100.00
42415;BME280;28058;46.344;17.786;2022-09-09T06:51:34;118336.50;;;-144.97;100.00
42415;BME280;28058;46.344;17.786;2022-09-09T06:54:02;118336.50;;;-144.97;100.00
42415;BME280;28058;46.344;17.786;2022-09-09T06:56:41;118336.50;;;-144.97;100.00
42415;BME280;28058;46.344;17.786;2022-09-09T06:59:10;118336.50;;;-144.97;100.00
42415;BME280;28058;46.344;17.786;2022-09-09T07:01:42;118336.50;;;-144.97;100.00
42415;BME280;28058;46.344;17.786;2022-09-09T07:04:17;118336.50;;;-144.97;100.00
42415;BME280;28058;46.344;17.786;2022-09-09T07:06:45;118336.50;;;-144.97;100.00
42415;BME280;28058;46.344;17.786;2022-09-09T07:09:14;118336.50;;;-144.97;99.97
42415;BME280;28058;46.344;17.786;2022-09-09T07:11:49;118336.50;;;-144.97;96.51
42415;BME280;28058;46.344;17.786;2022-09-09T07:14:19;118336.50;;;-144.97;95.21
42415;BME280;28058;46.344;17.786;2022-09-09T07:16:47;118336.50;;;-144.97;87.14
42415;BME280;28058;46.344;17.786;2022-09-09T07:19:14;118336.50;;;-144.97;63.22
42415;BME280;28058;46.344;17.786;2022-09-09T07:21:42;118336.50;;;-144.97;56.29
42415;BME280;28058;46.344;17.786;2022-09-09T07:24:09;118336.50;;;-144.97;47.87
42415;BME280;28058;46.344;17.786;2022-09-09T07:26:38;118336.50;;;-144.97;41.57
42415;BME280;28058;46.344;17.786;2022-09-09T07:29:05;118336.50;;;-144.97;41.27
42415;BME280;28058;46.344;17.786;2022-09-09T07:31:34;118336.50;;;-144.97;38.58
42415;BME280;28058;46.344;17.786;2022-09-09T07:34:04;118336.50;;;-144.97;37.27
42415;BME280;28058;46.344;17.786;2022-09-09T07:36:33;118336.50;;;-144.97;36.23
42415;BME280;28058;46.344;17.786;2022-09-09T07:39:09;118336.50;;;-144.97;36.30
42415;BME280;28058;46.344;17.786;2022-09-09T07:41:41;118336.50;;;-144.97;35.31
42415;BME280;28058;46.344;17.786;2022-09-09T07:44:19;118336.50;;;-144.97;35.24
42415;BME280;28058;46.344;17.786;2022-09-09T07:46:48;118336.50;;;-144.97;36.09
42415;BME280;28058;46.344;17.786;2022-09-09T07:49:15;118336.50;;;-144.97;35.73
42415;BME280;28058;46.344;17.786;2022-09-09T07:51:44;118336.50;;;-144.97;35.78
42415;BME280;28058;46.344;17.786;2022-09-09T07:54:13;118336.50;;;-144.97;34.73
42415;BME280;28058;46.344;17.786;2022-09-09T07:56:41;118336.50;;;-144.97;33.80
42415;BME280;28058;46.344;17.786;2022-09-09T07:59:08;118336.50;;;-144.97;36.19
42415;BME280;28058;46.344;17.786;2022-09-09T08:01:39;118336.50;;;-144.97;35.31
42415;BME280;28058;46.344;17.786;2022-09-09T08:04:15;118336.50;;;-144.97;33.43
42415;BME280;28058;46.344;17.786;2022-09-09T08:06:52;118336.50;;;-144.97;36.17
42415;BME280;28058;46.344;17.786;2022-09-09T08:09:22;118336.50;;;-144.97;36.84
42415;BME280;28058;46.344;17.786;2022-09-09T08:11:51;118336.50;;;-144.97;37.80
42415;BME280;28058;46.344;17.786;2022-09-09T08:14:18;118336.50;;;-144.97;36.87
42415;BME280;28058;46.344;17.786;2022-09-09T08:16:48;118336.50;;;-144.97;36.88
42415;BME280;28058;46.344;17.786;2022-09-09T08:19:16;118336.50;;;-144.97;35.76
42415;BME280;28058;46.344;17.786;2022-09-09T08:21:44;118336.50;;;-144.97;38.64
42415;BME280;28058;46.344;17.786;2022-09-09T08:24:11;118336.50;;;-144.97;36.23
42415;BME280;28058;46.344;17.786;2022-09-09T08:26:43;118336.50;;;-144.97;36.12
42415;BME280;28058;46.344;17.786;2022-09-09T08:29:11;118336.50;;;-144.97;33.00
42415;BME280;28058;46.344;17.786;2022-09-09T08:31:42;118336.50;;;-144.97;32.80
42415;BME280;28058;46.344;17.786;2022-09-09T08:34:09;118336.50;;;-144.97;33.40
42415;BME280;28058;46.344;17.786;2022-09-09T08:36:43;118336.50;;;-144.97;34.75
42415;BME280;28058;46.344;17.786;2022-09-09T08:39:12;118336.50;;;-144.97;34.89
42415;BME280;28058;46.344;17.786;2022-09-09T08:42:13;118336.50;;;-144.97;32.98
42415;BME280;28058;46.344;17.786;2022-09-09T08:55:46;118336.50;;;-144.97;30.75
42415;BME280;28058;46.344;17.786;2022-09-09T08:58:23;118336.50;;;-144.97;33.53
42415;BME280;28058;46.344;17.786;2022-09-09T09:11:26;118336.50;;;-144.97;31.65
42415;BME280;28058;46.344;17.786;2022-09-09T09:13:57;118336.50;;;-144.97;31.54
42415;BME280;28058;46.344;17.786;2022-09-09T09:16:35;118336.50;;;-144.97;31.82
42415;BME280;28058;46.344;17.786;2022-09-09T09:19:08;118336.50;;;-144.97;32.66
42415;BME280;28058;46.344;17.786;2022-09-09T09:21:45;118336.50;;;-144.97;35.11
42415;BME280;28058;46.344;17.786;2022-09-09T09:24:22;118336.50;;;-144.97;34.20
42415;BME280;28058;46.344;17.786;2022-09-09T09:26:50;118336.50;;;-144.97;35.74
42415;BME280;28058;46.344;17.786;2022-09-09T09:29:18;118336.50;;;-144.97;36.66
42415;BME280;28058;46.344;17.786;2022-09-09T09:31:53;118336.50;;;-144.97;37.28
42415;BME280;28058;46.344;17.786;2022-09-09T09:34:21;118336.50;;;-144.97;37.30
42415;BME280;28058;46.344;17.786;2022-09-09T09:36:56;118336.50;;;-144.97;36.29
42415;BME280;28058;46.344;17.786;2022-09-09T09:39:33;118336.50;;;-144.97;37.16
42415;BME280;28058;46.344;17.786;2022-09-09T09:42:26;118336.50;;;-144.97;37.24
42415;BME280;28058;46.344;17.786;2022-09-09T09:44:53;118336.50;;;-144.97;36.99
42415;BME280;28058;46.344;17.786;2022-09-09T09:47:21;118336.50;;;-144.97;35.99
42415;BME280;28058;46.344;17.786;2022-09-09T09:49:52;118336.50;;;-144.97;37.33
42415;BME280;28058;46.344;17.786;2022-09-09T09:52:21;118336.50;;;-144.97;37.10
42415;BME280;28058;46.344;17.786;2022-09-09T09:54:49;118336.50;;;-144.97;38.03
42415;BME280;28058;46.344;17.786;2022-09-09T09:57:17;118336.50;;;-144.97;34.47
42415;BME280;28058;46.344;17.786;2022-09-09T09:59:45;118336.50;;;-144.97;33.63
42415;BME280;28058;46.344;17.786;2022-09-09T10:02:24;118336.50;;;-144.97;33.77
42415;BME280;28058;46.344;17.786;2022-09-09T10:07:40;118336.50;;;-144.97;34.21
42415;BME280;28058;46.344;17.786;2022-09-09T10:10:24;118336.50;;;-144.97;35.08
42415;BME280;28058;46.344;17.786;2022-09-09T10:13:15;118336.50;;;-144.97;34.97
42415;BME280;28058;46.344;17.786;2022-09-09T10:15:51;118336.50;;;-144.97;34.04
42415;BME280;28058;46.344;17.786;2022-09-09T10:18:48;118336.50;;;-144.97;33.66
42415;BME280;28058;46.344;17.786;2022-09-09T10:26:47;118336.50;;;-144.97;34.13
42415;BME280;28058;46.344;17.786;2022-09-09T10:29:32;118336.50;;;-144.97;34.00
42415;BME280;28058;46.344;17.786;2022-09-09T10:34:56;118336.50;;;-144.97;33.81
42415;BME280;28058;46.344;17.786;2022-09-09T10:56:44;118336.50;;;-144.97;34.56
42415;BME280;28058;46.344;17.786;2022-09-09T10:59:21;118336.50;;;-144.97;35.60
42415;BME280;28058;46.344;17.786;2022-09-09T11:02:10;118336.50;;;-144.97;35.04
42415;BME280;28058;46.344;17.786;2022-09-09T11:04:43;118336.50;;;-144.97;34.78
42415;BME280;28058;46.344;17.786;2022-09-09T11:07:29;118336.50;;;-144.97;33.40
42415;BME280;28058;46.344;17.786;2022-09-09T11:10:03;118336.50;;;-144.97;33.14
42415;BME280;28058;46.344;17.786;2022-09-09T11:12:36;118336.50;;;-144.97;33.53
42415;BME280;28058;46.344;17.786;2022-09-09T11:15:20;118336.50;;;-144.97;34.66
42415;BME280;28058;46.344;17.786;2022-09-09T11:17:53;118336.50;;;-144.97;34.69
42415;BME280;28058;46.344;17.786;2022-09-09T11:20:23;118336.50;;;-144.97;34.68
42415;BME280;28058;46.344;17.786;2022-09-09T11:22:57;118336.50;;;-144.97;34.72
42415;BME280;28058;46.344;17.786;2022-09-09T11:25:35;118336.50;;;-144.97;34.92
42415;BME280;28058;46.344;17.786;2022-09-09T11:40:01;118336.50;;;-144.97;33.35
42415;BME280;28058;46.344;17.786;2022-09-09T11:42:34;118336.50;;;-144.97;33.28
42415;BME280;28058;46.344;17.786;2022-09-09T11:45:30;118336.50;;;-144.97;33.88
42415;BME280;28058;46.344;17.786;2022-09-09T11:48:00;118336.50;;;-144.97;32.50
42415;BME280;28058;46.344;17.786;2022-09-09T11:50:32;118336.50;;;-144.97;33.65
42415;BME280;28058;46.344;17.786;2022-09-09T11:53:23;118336.50;;;-144.97;33.95
42415;BME280;28058;46.344;17.786;2022-09-09T11:58:28;118336.50;;;-144.97;34.46
42415;BME280;28058;46.344;17.786;2022-09-09T12:00:58;118336.50;;;-144.97;35.07
42415;BME280;28058;46.344;17.786;2022-09-09T12:03:46;118336.50;;;-144.97;34.77
42415;BME280;28058;46.344;17.786;2022-09-09T12:06:26;118336.50;;;-144.97;34.28
42415;BME280;28058;46.344;17.786;2022-09-09T12:09:06;118336.50;;;-144.97;34.23
42415;BME280;28058;46.344;17.786;2022-09-09T12:11:34;118336.50;;;-144.97;33.83
42415;BME280;28058;46.344;17.786;2022-09-09T12:14:01;118336.50;;;-144.97;33.66
42415;BME280;28058;46.344;17.786;2022-09-09T12:19:14;118336.50;;;-144.97;35.06
42415;BME280;28058;46.344;17.786;2022-09-09T12:21:58;118336.50;;;-144.97;35.06
42415;BME280;28058;46.344;17.786;2022-09-09T12:30:49;118336.50;;;-144.97;35.18
42415;BME280;28058;46.344;17.786;2022-09-09T12:33:19;118336.50;;;-144.97;35.07
42415;BME280;28058;46.344;17.786;2022-09-09T12:35:53;118336.50;;;-144.97;35.13
42415;BME280;28058;46.344;17.786;2022-09-09T12:38:42;118336.50;;;-144.97;34.84
42415;BME280;28058;46.344;17.786;2022-09-09T12:41:23;118336.50;;;-144.97;34.56
42415;BME280;28058;46.344;17.786;2022-09-09T12:44:02;118336.50;;;-144.97;35.44
42415;BME280;28058;46.344;17.786;2022-09-09T12:46:35;118336.50;;;-144.97;36.06
42415;BME280;28058;46.344;17.786;2022-09-09T12:49:04;118336.50;;;-144.97;35.99
42415;BME280;28058;46.344;17.786;2022-09-09T12:51:32;118336.50;;;-144.97;34.70
42415;BME280;28058;46.344;17.786;2022-09-09T12:54:04;118336.50;;;-144.97;34.80
42415;BME280;28058;46.344;17.786;2022-09-09T12:56:32;118336.50;;;-144.97;35.67
42415;BME280;28058;46.344;17.786;2022-09-09T12:58:59;118336.50;;;-144.97;35.81
42415;BME280;28058;46.344;17.786;2022-09-09T13:01:31;118336.50;;;-144.97;36.76
42415;BME280;28058;46.344;17.786;2022-09-09T13:04:00;118336.50;;;-144.97;36.21
42415;BME280;28058;46.344;17.786;2022-09-09T13:06:31;118336.50;;;-144.97;36.05
42415;BME280;28058;46.344;17.786;2022-09-09T13:09:01;118336.50;;;-144.97;36.09
42415;BME280;28058;46.344;17.786;2022-09-09T13:11:42;118336.50;;;-144.97;36.40
42415;BME280;28058;46.344;17.786;2022-09-09T13:14:28;118336.50;;;-144.97;36.87
42415;BME280;28058;46.344;17.786;2022-09-09T13:17:00;118336.50;;;-144.97;36.44
42415;BME280;28058;46.344;17.786;2022-09-09T13:19:31;118336.50;;;-144.97;37.23
42415;BME280;28058;46.344;17.786;2022-09-09T13:21:59;118336.50;;;-144.97;35.67
42415;BME280;28058;46.344;17.786;2022-09-09T13:24:31;118336.50;;;-144.97;36.33
42415;BME280;28058;46.344;17.786;2022-09-09T13:27:04;118336.50;;;-144.97;36.88
42415;BME280;28058;46.344;17.786;2022-09-09T13:29:32;118336.50;;;-144.97;37.75
42415;BME280;28058;46.344;17.786;2022-09-09T13:32:27;118336.50;;;-144.97;38.08
42415;BME280;28058;46.344;17.786;2022-09-09T13:34:59;118336.50;;;-144.97;37.97
42415;BME280;28058;46.344;17.786;2022-09-09T13:40:01;118336.50;;;-144.97;39.73
42415;BME280;28058;46.344;17.786;2022-09-09T13:42:31;118336.50;;;-144.97;40.15
42415;BME280;28058;46.344;17.786;2022-09-09T13:44:59;118336.50;;;-144.97;40.55
42415;BME280;28058;46.344;17.786;2022-09-09T13:47:33;118336.50;;;-144.97;40.31
42415;BME280;28058;46.344;17.786;2022-09-09T13:50:29;118336.50;;;-144.97;40.35
42415;BME280;28058;46.344;17.786;2022-09-09T13:52:58;118336.50;;;-144.97;40.86
42415;BME280;28058;46.344;17.786;2022-09-09T13:55:27;118336.50;;;-144.97;40.08
42415;BME280;28058;46.344;17.786;2022-09-09T13:57:57;118336.50;;;-144.97;40.37
42415;BME280;28058;46.344;17.786;2022-09-09T14:00:24;118336.50;;;-144.97;40.01
42415;BME280;28058;46.344;17.786;2022-09-09T14:02:52;118336.50;;;-144.97;39.17
42415;BME280;28058;46.344;17.786;2022-09-09T14:05:23;118336.50;;;-144.97;40.31
42415;BME280;28058;46.344;17.786;2022-09-09T14:07:50;118336.50;;;-144.97;39.75
42415;BME280;28058;46.344;17.786;2022-09-09T14:10:20;118336.50;;;-144.97;39.28
42415;BME280;28058;46.344;17.786;2022-09-09T14:12:55;118336.50;;;-144.97;39.95
42415;BME280;28058;46.344;17.786;2022-09-09T14:15:22;118336.50;;;-144.97;38.53
42415;BME280;28058;46.344;17.786;2022-09-09T14:17:49;118336.50;;;-144.97;39.21
42415;BME280;28058;46.344;17.786;2022-09-09T14:20:16;118336.50;;;-144.97;38.95
42415;BME280;28058;46.344;17.786;2022-09-09T14:22:44;118336.50;;;-144.97;39.92
42415;BME280;28058;46.344;17.786;2022-09-09T14:25:10;118336.50;;;-144.97;40.12
42415;BME280;28058;46.344;17.786;2022-09-09T14:27:40;118336.50;;;-144.97;40.68
42415;BME280;28058;46.344;17.786;2022-09-09T14:30:09;118336.50;;;-144.97;40.54
42415;BME280;28058;46.344;17.786;2022-09-09T14:32:36;118336.50;;;-144.97;40.87
42415;BME280;28058;46.344;17.786;2022-09-09T14:35:03;118336.50;;;-144.97;41.27